Time;durP1;ratioP1;P1;durP2;ratioP2;P2;SDS_P1;SDS_P2;PMS_P1;PMS_P2;Temp;Humidity;BMP_temperature;BMP_pressure;BME280_temperature;BME280_humidity;BME280_pressure;Samples;Min_cycle;Max_cycle;Signal;HPM_P1;HPM_P2
2021/09/08 00:00:43;;;;;;;4.70;2.90;;;;;;;;;;5099710;28;20694;-62
2021/09/08 00:03:12;;;;;;;4.27;2.37;;;;;;;;;;5099833;28;20236;-62
2021/09/08 00:05:41;;;;;;;2.73;2.53;;;;;;;;;;5099554;28;20266;-62
2021/09/08 00:08:09;;;;;;;3.57;2.60;;;;;;;;;;5100777;28;20209;-62
2021/09/08 00:10:37;;;;;;;4.17;2.63;;;;;;;;;;5120268;28;20287;-62
2021/09/08 00:13:06;;;;;;;4.60;2.57;;;;;;;;;;5120086;28;20290;-62
2021/09/08 00:15:34;;;;;;;3.37;2.50;;;;;;;;;;5119562;27;20573;-62
2021/09/08 00:18:02;;;;;;;3.40;2.40;;;;;;;;;;5119733;28;20295;-61
2021/09/08 00:20:30;;;;;;;3.97;2.50;;;;;;;;;;5113309;28;20218;-62
2021/09/08 00:22:59;;;;;;;3.20;2.67;;;;;;;;;;5106570;28;20197;-61
2021/09/08 00:25:27;;;;;;;3.90;2.60;;;;;;;;;;5106969;28;20231;-62
2021/09/08 00:27:55;;;;;;;4.37;2.70;;;;;;;;;;5104205;28;20588;-62
2021/09/08 00:30:23;;;;;;;6.03;2.90;;;;;;;;;;5109549;28;20239;-62
2021/09/08 00:32:51;;;;;;;6.03;2.97;;;;;;;;;;5107367;28;20234;-62
2021/09/08 00:35:19;;;;;;;4.63;3.27;;;;;;;;;;5106051;28;20315;-62
2021/09/08 00:37:47;;;;;;;5.33;2.80;;;;;;;;;;5105451;28;20197;-62
2021/09/08 00:40:17;;;;;;;4.10;3.00;;;;;;;;;;5106840;28;20204;-62
2021/09/08 00:42:45;;;;;;;4.03;3.13;;;;;;;;;;5104732;28;20193;-62
2021/09/08 00:45:14;;;;;;;3.67;2.77;;;;;;;;;;5106678;28;21057;-62
2021/09/08 00:47:42;;;;;;;3.20;2.73;;;;;;;;;;5106324;28;20223;-62
2021/09/08 00:50:11;;;;;;;3.23;2.53;;;;;;;;;;5110132;28;20209;-62
2021/09/08 00:52:39;;;;;;;4.37;2.70;;;;;;;;;;5106542;28;20286;-62
2021/09/08 00:55:09;;;;;;;3.77;3.17;;;;;;;;;;5105845;28;20225;-62
2021/09/08 00:57:39;;;;;;;6.20;3.40;;;;;;;;;;5105830;28;20195;-62
2021/09/08 01:00:07;;;;;;;4.27;2.70;;;;;;;;;;5107563;28;20203;-62
2021/09/08 01:02:38;;;;;;;3.97;2.63;;;;;;;;;;5108603;28;20287;-62
2021/09/08 01:05:07;;;;;;;4.80;3.17;;;;;;;;;;5104923;28;20764;-62
2021/09/08 01:07:36;;;;;;;3.77;2.90;;;;;;;;;;5108236;28;20228;-62
2021/09/08 01:10:04;;;;;;;3.37;2.90;;;;;;;;;;5105588;28;20698;-62
2021/09/08 01:12:33;;;;;;;3.10;2.80;;;;;;;;;;5103448;28;20295;-62
2021/09/08 01:15:02;;;;;;;5.13;3.33;;;;;;;;;;5115740;28;20229;-62
2021/09/08 01:17:30;;;;;;;5.47;2.90;;;;;;;;;;5118265;28;20214;-62
2021/09/08 01:19:58;;;;;;;3.53;3.07;;;;;;;;;;5118580;28;20748;-62
2021/09/08 01:22:29;;;;;;;4.63;2.70;;;;;;;;;;5118915;27;20211;-62
2021/09/08 01:24:59;;;;;;;6.37;3.10;;;;;;;;;;5112768;28;20227;-62
2021/09/08 01:27:27;;;;;;;3.67;2.70;;;;;;;;;;5098735;28;20289;-62
2021/09/08 01:29:55;;;;;;;4.10;3.23;;;;;;;;;;5097864;28;20721;-62
2021/09/08 01:32:31;;;;;;;6.63;2.90;;;;;;;;;;5097716;28;20743;-62
2021/09/08 01:34:59;;;;;;;3.30;2.73;;;;;;;;;;5098132;28;20235;-62
2021/09/08 01:37:27;;;;;;;4.37;2.60;;;;;;;;;;5098081;28;20232;-62
2021/09/08 01:39:55;;;;;;;2.83;2.60;;;;;;;;;;5098264;28;20291;-62
2021/09/08 01:42:24;;;;;;;3.93;3.10;;;;;;;;;;5098014;28;20219;-62
2021/09/08 01:44:52;;;;;;;4.43;2.93;;;;;;;;;;5097719;28;20254;-62
2021/09/08 01:47:20;;;;;;;3.00;2.70;;;;;;;;;;5096506;28;20205;-62
2021/09/08 01:49:48;;;;;;;3.80;2.93;;;;;;;;;;5105257;28;20544;-62
2021/09/08 01:52:16;;;;;;;6.10;2.90;;;;;;;;;;5100575;28;20242;-62
2021/09/08 01:54:44;;;;;;;6.10;2.80;;;;;;;;;;5097890;28;20237;-62
2021/09/08 01:57:12;;;;;;;7.40;2.90;;;;;;;;;;5097655;28;20238;-62
2021/09/08 01:59:41;;;;;;;2.97;2.57;;;;;;;;;;5098001;28;20249;-62
2021/09/08 02:02:09;;;;;;;3.57;3.27;;;;;;;;;;5097513;28;20729;-62
2021/09/08 02:04:38;;;;;;;4.30;2.73;;;;;;;;;;5097748;28;20313;-62
2021/09/08 02:07:06;;;;;;;3.80;2.70;;;;;;;;;;5097883;28;20203;-62
2021/09/08 02:09:33;;;;;;;4.50;2.80;;;;;;;;;;5110751;28;20204;-62
2021/09/08 02:12:01;;;;;;;3.20;2.77;;;;;;;;;;5117917;28;20245;-62
2021/09/08 02:14:29;;;;;;;4.23;2.70;;;;;;;;;;5117899;28;20233;-62
2021/09/08 02:16:59;;;;;;;5.00;2.83;;;;;;;;;;5117445;28;20727;-62
2021/09/08 02:19:27;;;;;;;5.33;2.90;;;;;;;;;;5118199;28;20206;-62
2021/09/08 02:21:55;;;;;;;5.80;2.53;;;;;;;;;;5117972;28;20677;-62
2021/09/08 02:24:23;;;;;;;2.80;2.60;;;;;;;;;;5116250;28;20233;-62
2021/09/08 02:26:51;;;;;;;4.67;2.97;;;;;;;;;;5097442;28;20642;-62
2021/09/08 02:29:19;;;;;;;6.43;3.00;;;;;;;;;;5097180;28;20243;-62
2021/09/08 02:31:47;;;;;;;4.77;2.57;;;;;;;;;;5097086;28;20252;-62
2021/09/08 02:34:16;;;;;;;4.27;2.70;;;;;;;;;;5097195;28;20590;-62
2021/09/08 02:36:44;;;;;;;4.13;3.10;;;;;;;;;;5097365;28;20226;-62
2021/09/08 02:39:12;;;;;;;4.23;2.80;;;;;;;;;;5097288;28;20207;-62
2021/09/08 02:41:40;;;;;;;6.57;2.67;;;;;;;;;;5097122;28;20668;-62
2021/09/08 02:44:08;;;;;;;4.90;2.50;;;;;;;;;;5097236;28;20701;-62
2021/09/08 02:46:36;;;;;;;5.23;2.67;;;;;;;;;;5097067;28;20210;-62
2021/09/08 02:49:08;;;;;;;5.07;3.20;;;;;;;;;;5098951;28;20230;-62
2021/09/08 02:51:37;;;;;;;3.27;2.80;;;;;;;;;;5105009;28;20206;-62
2021/09/08 02:54:05;;;;;;;6.90;3.00;;;;;;;;;;5096889;28;20585;-62
2021/09/08 02:56:33;;;;;;;5.07;2.80;;;;;;;;;;5097264;28;20241;-62
2021/09/08 02:59:01;;;;;;;5.40;2.93;;;;;;;;;;5100424;28;20661;-62
2021/09/08 03:01:29;;;;;;;5.87;3.13;;;;;;;;;;5101097;28;20206;-62
2021/09/08 03:03:58;;;;;;;7.00;3.40;;;;;;;;;;5100773;28;20225;-62
2021/09/08 03:06:26;;;;;;;4.67;3.10;;;;;;;;;;5101115;28;20265;-62
2021/09/08 03:08:57;;;;;;;4.20;3.00;;;;;;;;;;5108376;28;20198;-62
2021/09/08 03:11:26;;;;;;;8.87;2.90;;;;;;;;;;5121375;28;20296;-62
2021/09/08 03:13:54;;;;;;;7.47;3.43;;;;;;;;;;5121317;28;20783;-62
2021/09/08 03:16:22;;;;;;;6.87;3.07;;;;;;;;;;5120967;28;20213;-62
2021/09/08 03:18:50;;;;;;;6.47;3.37;;;;;;;;;;5120684;28;20256;-62
2021/09/08 03:21:18;;;;;;;4.00;2.80;;;;;;;;;;5121156;28;20215;-62
2021/09/08 03:23:46;;;;;;;4.00;2.77;;;;;;;;;;5121109;28;20315;-62
2021/09/08 03:26:16;;;;;;;5.17;4.13;;;;;;;;;;5104529;28;20212;-61
2021/09/08 03:28:44;;;;;;;5.40;2.60;;;;;;;;;;5119180;28;20282;-62
2021/09/08 03:31:12;;;;;;;3.77;2.43;;;;;;;;;;5112281;28;20201;-62
2021/09/08 03:33:40;;;;;;;2.70;2.50;;;;;;;;;;5120180;28;20211;-61
2021/09/08 03:36:08;;;;;;;3.07;2.87;;;;;;;;;;5120493;28;20810;-60
2021/09/08 03:38:36;;;;;;;2.87;2.43;;;;;;;;;;5106217;28;20220;-61
2021/09/08 03:41:04;;;;;;;5.20;2.53;;;;;;;;;;5120371;28;20201;-61
2021/09/08 03:43:33;;;;;;;3.57;2.80;;;;;;;;;;5112763;28;20205;-61
2021/09/08 03:46:04;;;;;;;4.40;2.73;;;;;;;;;;5120570;28;20678;-63
2021/09/08 03:48:33;;;;;;;3.27;2.40;;;;;;;;;;5120444;28;20228;-62
2021/09/08 03:51:03;;;;;;;3.13;2.57;;;;;;;;;;5116698;28;20205;-60
2021/09/08 03:53:31;;;;;;;3.80;2.50;;;;;;;;;;5120381;27;20215;-62
2021/09/08 03:55:59;;;;;;;3.53;2.43;;;;;;;;;;5120638;28;20238;-63
2021/09/08 03:58:27;;;;;;;4.93;2.53;;;;;;;;;;5120069;28;20235;-60
2021/09/08 04:00:56;;;;;;;4.27;2.60;;;;;;;;;;5120003;28;20231;-62
2021/09/08 04:03:24;;;;;;;4.20;2.53;;;;;;;;;;5107092;28;20206;-60
2021/09/08 04:05:53;;;;;;;2.67;2.30;;;;;;;;;;5106929;28;20220;-61
2021/09/08 04:08:21;;;;;;;2.40;2.20;;;;;;;;;;5106179;28;20229;-61
2021/09/08 04:10:48;;;;;;;2.63;2.43;;;;;;;;;;5108364;28;20288;-61
2021/09/08 04:13:17;;;;;;;2.67;2.30;;;;;;;;;;5103588;28;20205;-61
2021/09/08 04:15:45;;;;;;;2.80;2.43;;;;;;;;;;5108547;28;20312;-61
2021/09/08 04:18:14;;;;;;;2.63;2.30;;;;;;;;;;5107239;28;20224;-62
2021/09/08 04:20:42;;;;;;;4.40;2.73;;;;;;;;;;5109631;28;20209;-61
2021/09/08 04:23:10;;;;;;;3.90;3.00;;;;;;;;;;5101721;28;20201;-62
2021/09/08 04:25:39;;;;;;;5.17;2.70;;;;;;;;;;5105429;28;20218;-61
2021/09/08 04:28:07;;;;;;;5.00;2.83;;;;;;;;;;5112488;28;20554;-61
2021/09/08 04:30:34;;;;;;;3.20;2.90;;;;;;;;;;5114014;28;20233;-61
2021/09/08 04:33:03;;;;;;;3.77;2.70;;;;;;;;;;5098390;28;20292;-60
2021/09/08 04:35:32;;;;;;;2.73;2.47;;;;;;;;;;5098407;28;20304;-60
2021/09/08 04:38:00;;;;;;;2.60;2.40;;;;;;;;;;5104600;28;20225;-60
2021/09/08 04:40:28;;;;;;;2.73;2.20;;;;;;;;;;5104623;28;20237;-60
2021/09/08 04:42:56;;;;;;;2.53;2.30;;;;;;;;;;5103306;28;20294;-64
2021/09/08 04:45:24;;;;;;;2.63;2.43;;;;;;;;;;5107060;28;20291;-66
2021/09/08 04:47:52;;;;;;;2.67;2.33;;;;;;;;;;5108730;28;20562;-68
2021/09/08 04:50:20;;;;;;;4.97;2.73;;;;;;;;;;5107883;28;20195;-67
2021/09/08 04:52:50;;;;;;;3.07;2.63;;;;;;;;;;5107587;28;20204;-69
2021/09/08 04:55:17;;;;;;;5.00;2.80;;;;;;;;;;5109050;28;20234;-66
2021/09/08 04:57:45;;;;;;;2.60;2.40;;;;;;;;;;5108804;28;20276;-66
2021/09/08 05:00:13;;;;;;;2.67;2.47;;;;;;;;;;5112846;27;20203;-65
2021/09/08 05:02:41;;;;;;;2.43;2.23;;;;;;;;;;5110525;28;20205;-64
2021/09/08 05:05:10;;;;;;;3.07;2.60;;;;;;;;;;5112443;28;20238;-64
2021/09/08 05:07:38;;;;;;;4.93;2.70;;;;;;;;;;5109363;28;20213;-65
2021/09/08 05:10:08;;;;;;;2.90;2.60;;;;;;;;;;5107974;28;20204;-64
2021/09/08 05:12:36;;;;;;;5.53;2.30;;;;;;;;;;5108341;28;20252;-65
2021/09/08 05:15:05;;;;;;;5.43;3.57;;;;;;;;;;5108614;28;20224;-64
2021/09/08 05:17:33;;;;;;;2.93;2.60;;;;;;;;;;5105784;28;20684;-65
2021/09/08 05:20:02;;;;;;;3.10;2.40;;;;;;;;;;5104576;28;20572;-65
2021/09/08 05:22:30;;;;;;;3.67;3.10;;;;;;;;;;5101406;28;20283;-65
2021/09/08 05:24:58;;;;;;;3.33;2.43;;;;;;;;;;5105402;28;20226;-64
2021/09/08 05:27:28;;;;;;;5.37;2.93;;;;;;;;;;5107078;28;20272;-64
2021/09/08 05:29:56;;;;;;;8.20;2.90;;;;;;;;;;5105404;28;20717;-65
2021/09/08 05:32:24;;;;;;;3.27;2.57;;;;;;;;;;5104079;28;20208;-66
2021/09/08 05:34:53;;;;;;;2.60;2.40;;;;;;;;;;5100601;28;20219;-65
2021/09/08 05:37:21;;;;;;;4.20;2.70;;;;;;;;;;5103063;28;20208;-66
2021/09/08 05:39:49;;;;;;;2.93;2.63;;;;;;;;;;5100762;28;20649;-64
2021/09/08 05:42:17;;;;;;;3.63;2.83;;;;;;;;;;5109008;28;20282;-64
2021/09/08 05:44:47;;;;;;;4.57;3.13;;;;;;;;;;5100526;28;20228;-64
2021/09/08 05:47:15;;;;;;;3.70;3.40;;;;;;;;;;5104615;28;20206;-64
2021/09/08 05:49:43;;;;;;;6.60;2.83;;;;;;;;;;5107738;28;20531;-64
2021/09/08 05:52:11;;;;;;;4.10;2.90;;;;;;;;;;5101503;28;20248;-64
2021/09/08 05:54:39;;;;;;;3.53;3.10;;;;;;;;;;5104699;28;20652;-63
2021/09/08 05:57:07;;;;;;;7.27;2.97;;;;;;;;;;5102092;28;20198;-61
2021/09/08 05:59:35;;;;;;;3.47;2.97;;;;;;;;;;5103038;28;20774;-61
2021/09/08 06:02:04;;;;;;;7.70;2.80;;;;;;;;;;5109981;28;20291;-62
2021/09/08 06:04:33;;;;;;;4.10;2.70;;;;;;;;;;5102608;28;20226;-62
2021/09/08 06:07:01;;;;;;;2.97;2.77;;;;;;;;;;5110492;28;20199;-62
2021/09/08 06:09:30;;;;;;;6.93;3.23;;;;;;;;;;5106169;28;20226;-62
2021/09/08 06:11:58;;;;;;;5.23;3.20;;;;;;;;;;5108076;28;20254;-61
2021/09/08 06:14:29;;;;;;;3.90;3.00;;;;;;;;;;5110614;28;20250;-62
2021/09/08 06:16:57;;;;;;;4.97;3.10;;;;;;;;;;5112563;28;20216;-61
2021/09/08 06:19:27;;;;;;;4.03;2.73;;;;;;;;;;5111926;28;20239;-61
2021/09/08 06:21:55;;;;;;;5.03;3.00;;;;;;;;;;5112883;28;20219;-62
2021/09/08 06:24:24;;;;;;;6.17;3.17;;;;;;;;;;5111616;28;20227;-61
2021/09/08 06:26:53;;;;;;;3.60;3.30;;;;;;;;;;5113388;28;20233;-62
2021/09/08 06:29:21;;;;;;;4.40;3.00;;;;;;;;;;5111360;28;20261;-61
2021/09/08 06:31:49;;;;;;;4.90;3.00;;;;;;;;;;5105625;28;20621;-61
2021/09/08 06:34:17;;;;;;;4.97;3.20;;;;;;;;;;5100571;28;20304;-61
2021/09/08 06:36:49;;;;;;;5.87;3.10;;;;;;;;;;5101346;28;20205;-62
2021/09/08 06:39:17;;;;;;;3.97;3.23;;;;;;;;;;5100828;28;20249;-62
2021/09/08 06:41:48;;;;;;;4.27;3.00;;;;;;;;;;5101146;28;20227;-61
2021/09/08 06:44:17;;;;;;;4.73;3.13;;;;;;;;;;5103766;28;20277;-62
2021/09/08 06:46:45;;;;;;;5.53;3.70;;;;;;;;;;5113050;28;20220;-61
2021/09/08 06:49:14;;;;;;;6.57;3.40;;;;;;;;;;5109403;28;20205;-62
2021/09/08 06:51:42;;;;;;;5.57;3.23;;;;;;;;;;5106709;28;20209;-62
2021/09/08 06:54:12;;;;;;;8.17;3.13;;;;;;;;;;5107985;28;20303;-61
2021/09/08 06:56:40;;;;;;;5.43;3.23;;;;;;;;;;5113530;28;20660;-61
2021/09/08 06:59:08;;;;;;;6.07;3.27;;;;;;;;;;5109649;28;20329;-62
2021/09/08 07:01:36;;;;;;;4.63;3.33;;;;;;;;;;5110957;28;20210;-61
2021/09/08 07:04:05;;;;;;;4.20;3.00;;;;;;;;;;5107947;28;20335;-61
2021/09/08 07:06:33;;;;;;;3.77;2.57;;;;;;;;;;5109890;28;20569;-62
2021/09/08 07:09:02;;;;;;;3.43;2.47;;;;;;;;;;5109155;28;20204;-61
2021/09/08 07:11:34;;;;;;;26.47;9.83;;;;;;;;;;5114047;28;20294;-62
2021/09/08 07:14:02;;;;;;;11.17;4.63;;;;;;;;;;5115483;28;20262;-61
2021/09/08 07:16:30;;;;;;;5.80;3.30;;;;;;;;;;5116151;28;20214;-61
2021/09/08 07:18:59;;;;;;;3.23;2.93;;;;;;;;;;5117320;28;20230;-61
2021/09/08 07:21:27;;;;;;;7.67;3.20;;;;;;;;;;5101833;28;20208;-62
2021/09/08 07:23:55;;;;;;;4.17;3.13;;;;;;;;;;5102589;28;20644;-61
2021/09/08 07:26:44;;;;;;;5.40;3.23;;;;;;;;;;5116441;28;20280;-61
2021/09/08 07:29:12;;;;;;;7.90;4.07;;;;;;;;;;5115414;28;20316;-62
2021/09/08 07:31:40;;;;;;;17.47;4.57;;;;;;;;;;5106318;28;20217;-61
2021/09/08 07:34:12;;;;;;;5.57;3.53;;;;;;;;;;5106508;28;20264;-61
2021/09/08 07:36:40;;;;;;;5.50;2.63;;;;;;;;;;5105726;28;20210;-61
2021/09/08 07:39:08;;;;;;;5.60;3.57;;;;;;;;;;5108133;28;20217;-62
2021/09/08 07:41:37;;;;;;;3.13;2.87;;;;;;;;;;5106041;28;20295;-62
2021/09/08 07:44:07;;;;;;;4.60;3.70;;;;;;;;;;5105377;28;20329;-61
2021/09/08 07:46:35;;;;;;;3.80;3.00;;;;;;;;;;5109006;28;20197;-61
2021/09/08 07:49:04;;;;;;;4.90;3.50;;;;;;;;;;5107425;28;20559;-61
2021/09/08 07:51:34;;;;;;;3.27;2.97;;;;;;;;;;5101952;28;20244;-62
2021/09/08 07:54:03;;;;;;;3.40;2.93;;;;;;;;;;5100846;28;20670;-61
2021/09/08 07:56:31;;;;;;;30.77;8.40;;;;;;;;;;5106381;28;20641;-61
2021/09/08 07:59:00;;;;;;;14.27;5.20;;;;;;;;;;5106198;27;20221;-62
2021/09/08 08:01:32;;;;;;;5.87;3.60;;;;;;;;;;5105788;28;20208;-62
2021/09/08 08:04:01;;;;;;;10.70;4.07;;;;;;;;;;5103300;28;20224;-61
2021/09/08 08:06:30;;;;;;;5.50;3.20;;;;;;;;;;5099585;28;20207;-62
2021/09/08 08:08:58;;;;;;;3.07;2.80;;;;;;;;;;5099173;28;20209;-62
2021/09/08 08:11:27;;;;;;;4.27;3.23;;;;;;;;;;5099295;28;20209;-62
2021/09/08 08:13:55;;;;;;;4.70;3.17;;;;;;;;;;5101393;28;20225;-62
2021/09/08 08:16:33;;;;;;;5.03;3.50;;;;;;;;;;5115581;28;20208;-61
2021/09/08 08:19:02;;;;;;;7.90;3.20;;;;;;;;;;5116073;28;20309;-62
2021/09/08 08:21:34;;;;;;;3.63;3.17;;;;;;;;;;5112576;28;20235;-62
2021/09/08 08:24:05;;;;;;;3.70;3.27;;;;;;;;;;5115107;28;20231;-62
2021/09/08 08:26:33;;;;;;;3.20;2.90;;;;;;;;;;5104457;28;20236;-62
2021/09/08 08:29:01;;;;;;;5.43;3.30;;;;;;;;;;5100697;28;20239;-62
2021/09/08 08:31:30;;;;;;;13.13;3.73;;;;;;;;;;5103201;28;20209;-62
2021/09/08 08:34:03;;;;;;;8.73;4.23;;;;;;;;;;5101957;28;20225;-62
2021/09/08 08:36:31;;;;;;;6.50;2.90;;;;;;;;;;5112946;28;20248;-62
2021/09/08 08:39:00;;;;;;;3.37;3.07;;;;;;;;;;5115721;28;20211;-61
2021/09/08 08:41:28;;;;;;;5.47;3.10;;;;;;;;;;5106435;28;20666;-61
2021/09/08 08:43:56;;;;;;;8.07;3.17;;;;;;;;;;5107306;28;20265;-62
2021/09/08 08:46:24;;;;;;;4.53;2.97;;;;;;;;;;5111067;28;20209;-61
2021/09/08 08:48:53;;;;;;;7.47;3.40;;;;;;;;;;5102615;28;20564;-62
2021/09/08 08:51:23;;;;;;;3.83;3.40;;;;;;;;;;5106071;28;20202;-62
2021/09/08 08:53:51;;;;;;;4.87;2.93;;;;;;;;;;5098795;28;20222;-61
2021/09/08 08:56:20;;;;;;;7.47;3.00;;;;;;;;;;5097972;28;20202;-62
2021/09/08 08:58:48;;;;;;;3.37;2.93;;;;;;;;;;5098329;28;20239;-62
2021/09/08 09:01:20;;;;;;;5.47;3.43;;;;;;;;;;5098440;28;20767;-62
2021/09/08 09:03:58;;;;;;;7.50;3.23;;;;;;;;;;5098675;28;20241;-62
2021/09/08 09:06:30;;;;;;;4.27;3.33;;;;;;;;;;5098233;28;20216;-62
2021/09/08 09:09:03;;;;;;;3.70;3.30;;;;;;;;;;5098762;28;20201;-61
2021/09/08 09:11:34;;;;;;;3.90;3.13;;;;;;;;;;5106912;28;20326;-62
2021/09/08 09:14:03;;;;;;;4.83;2.93;;;;;;;;;;5107130;28;20218;-62
2021/09/08 09:16:31;;;;;;;4.57;3.13;;;;;;;;;;5109206;28;20209;-61
2021/09/08 09:19:00;;;;;;;4.43;4.00;;;;;;;;;;5114271;28;20302;-62
2021/09/08 09:21:30;;;;;;;3.97;2.90;;;;;;;;;;5108412;28;20222;-62
2021/09/08 09:23:59;;;;;;;6.33;3.27;;;;;;;;;;5112933;28;20779;-62
2021/09/08 09:26:29;;;;;;;3.80;3.03;;;;;;;;;;5106302;28;20205;-62
2021/09/08 09:29:05;;;;;;;3.47;3.10;;;;;;;;;;5102007;28;20322;-62
2021/09/08 09:31:33;;;;;;;4.20;3.10;;;;;;;;;;5108454;28;20201;-62
2021/09/08 09:34:02;;;;;;;4.17;2.93;;;;;;;;;;5111633;28;20237;-62
2021/09/08 09:36:33;;;;;;;3.20;3.00;;;;;;;;;;5106719;28;20215;-62
2021/09/08 09:39:01;;;;;;;6.40;3.13;;;;;;;;;;5105181;28;20256;-63
2021/09/08 09:41:32;;;;;;;4.73;3.40;;;;;;;;;;5104589;28;20732;-64
2021/09/08 09:44:06;;;;;;;4.10;2.93;;;;;;;;;;5102637;28;20226;-67
2021/09/08 09:46:34;;;;;;;4.77;3.47;;;;;;;;;;5105354;28;20213;-67
2021/09/08 09:49:04;;;;;;;3.13;2.83;;;;;;;;;;5111697;28;20207;-63
2021/09/08 09:51:33;;;;;;;4.40;2.90;;;;;;;;;;5103003;28;20212;-64
2021/09/08 09:54:02;;;;;;;9.50;3.30;;;;;;;;;;5097195;28;20229;-63
2021/09/08 09:56:30;;;;;;;5.93;2.77;;;;;;;;;;5096997;28;20575;-64
2021/09/08 09:58:58;;;;;;;9.00;3.90;;;;;;;;;;5096642;28;20206;-65
2021/09/08 10:01:26;;;;;;;8.07;3.67;;;;;;;;;;5096766;28;20229;-66
2021/09/08 10:03:55;;;;;;;4.80;3.50;;;;;;;;;;5096613;28;20232;-66
2021/09/08 10:06:23;;;;;;;8.67;3.30;;;;;;;;;;5105896;28;21583;-66
2021/09/08 10:08:56;;;;;;;3.47;3.17;;;;;;;;;;5095367;28;20254;-66
2021/09/08 10:11:25;;;;;;;3.23;2.93;;;;;;;;;;5096192;28;20221;-67
2021/09/08 10:13:54;;;;;;;5.37;3.17;;;;;;;;;;5104734;28;20260;-67
2021/09/08 10:16:23;;;;;;;6.80;3.73;;;;;;;;;;5105785;28;20207;-65
2021/09/08 10:18:51;;;;;;;6.77;2.93;;;;;;;;;;5102727;28;20652;-64
2021/09/08 10:21:20;;;;;;;6.33;3.20;;;;;;;;;;5113859;28;20722;-66
2021/09/08 10:23:55;;;;;;;5.77;3.10;;;;;;;;;;5108740;28;20219;-67
2021/09/08 10:26:28;;;;;;;5.30;3.70;;;;;;;;;;5100456;28;20224;-66
2021/09/08 10:28:58;;;;;;;4.73;3.00;;;;;;;;;;5099364;28;20314;-65
2021/09/08 10:31:26;;;;;;;11.87;3.57;;;;;;;;;;5097741;28;20208;-69
2021/09/08 10:33:56;;;;;;;3.87;3.17;;;;;;;;;;5109255;28;20224;-67
2021/09/08 10:36:24;;;;;;;4.00;3.00;;;;;;;;;;5110931;28;20206;-67
2021/09/08 10:39:04;;;;;;;5.67;2.37;;;;;;;;;;5102699;28;20294;-67
2021/09/08 10:41:39;;;;;;;3.77;3.03;;;;;;;;;;5096765;28;20231;-66
2021/09/08 10:44:08;;;;;;;3.13;2.83;;;;;;;;;;5097074;28;20266;-69
2021/09/08 10:46:49;;;;;;;5.30;3.30;;;;;;;;;;5096772;28;20198;-68
2021/09/08 10:49:36;;;;;;;4.23;2.90;;;;;;;;;;5099881;28;20200;-67
2021/09/08 10:52:04;;;;;;;3.72;2.90;;;;;;;;;;5113097;28;20193;-69
2021/09/08 10:54:34;;;;;;;3.42;3.13;;;;;;;;;;5109056;28;20245;-69
2021/09/08 10:57:02;;;;;;;8.25;3.05;;;;;;;;;;5097436;28;20208;-69
2021/09/08 10:59:50;;;;;;;6.78;3.30;;;;;;;;;;5096706;28;20202;-69
2021/09/08 11:02:18;;;;;;;7.78;3.60;;;;;;;;;;5096116;28;20219;-68
2021/09/08 11:04:59;;;;;;;4.00;3.37;;;;;;;;;;5095881;28;20223;-68
2021/09/08 11:07:27;;;;;;;5.38;2.75;;;;;;;;;;5115261;28;20209;-68
2021/09/08 11:09:56;;;;;;;4.30;2.77;;;;;;;;;;5101384;28;20685;-68
2021/09/08 11:12:44;;;;;;;3.88;2.80;;;;;;;;;;5096881;28;20198;-69
2021/09/08 11:15:12;;;;;;;4.33;3.40;;;;;;;;;;5096829;28;20282;-68
2021/09/08 11:17:40;;;;;;;4.18;2.75;;;;;;;;;;5097095;28;20205;-68
2021/09/08 11:20:23;;;;;;;5.57;3.37;;;;;;;;;;5098084;28;20203;-68
2021/09/08 11:22:58;;;;;;;3.63;2.80;;;;;;;;;;5100796;28;20310;-68
2021/09/08 11:25:31;;;;;;;4.68;2.78;;;;;;;;;;5106783;28;20217;-68
2021/09/08 11:27:59;;;;;;;3.83;2.95;;;;;;;;;;5100120;28;20199;-68
2021/09/08 11:30:30;;;;;;;3.50;3.00;;;;;;;;;;5099287;28;20233;-69
2021/09/08 11:32:59;;;;;;;4.32;3.33;;;;;;;;;;5100095;28;20237;-68
2021/09/08 11:35:34;;;;;;;4.45;2.80;;;;;;;;;;5100026;28;20239;-68
2021/09/08 11:38:02;;;;;;;4.22;2.80;;;;;;;;;;5099915;28;20202;-69
2021/09/08 11:40:33;;;;;;;5.22;3.10;;;;;;;;;;5099983;28;20210;-68
2021/09/08 11:43:01;;;;;;;4.13;3.00;;;;;;;;;;5100065;28;20307;-69
2021/09/08 11:45:29;;;;;;;5.70;3.00;;;;;;;;;;5099597;28;20230;-68
2021/09/08 11:47:57;;;;;;;3.67;2.40;;;;;;;;;;5107598;28;20284;-68
2021/09/08 11:50:25;;;;;;;4.72;3.28;;;;;;;;;;5106760;28;20210;-68
2021/09/08 11:52:54;;;;;;;4.43;2.78;;;;;;;;;;5104605;28;20210;-68
2021/09/08 11:55:26;;;;;;;8.23;3.30;;;;;;;;;;5103915;28;20236;-68
2021/09/08 11:57:55;;;;;;;4.18;3.08;;;;;;;;;;5100204;28;20215;-68
2021/09/08 12:00:23;;;;;;;4.22;3.45;;;;;;;;;;5113823;28;20205;-68
2021/09/08 12:02:51;;;;;;;3.65;3.15;;;;;;;;;;5099663;28;20314;-68
2021/09/08 12:05:21;;;;;;;4.28;3.00;;;;;;;;;;5097751;28;20692;-68
2021/09/08 12:07:49;;;;;;;5.60;3.85;;;;;;;;;;5115714;28;20664;-68
2021/09/08 12:10:17;;;;;;;4.32;3.30;;;;;;;;;;5100354;27;20591;-68
2021/09/08 12:12:45;;;;;;;3.47;2.80;;;;;;;;;;5098427;28;20200;-68
2021/09/08 12:15:31;;;;;;;5.75;3.78;;;;;;;;;;5099165;28;20840;-68
2021/09/08 12:18:15;;;;;;;5.13;3.08;;;;;;;;;;5099109;28;20254;-68
2021/09/08 12:20:43;;;;;;;3.30;3.00;;;;;;;;;;5106822;28;20204;-68
2021/09/08 12:23:23;;;;;;;3.00;2.50;;;;;;;;;;5119844;28;20287;-66
2021/09/08 12:26:03;;;;;;;3.22;3.03;;;;;;;;;;5114957;28;20216;-66
2021/09/08 12:28:30;;;;;;;3.33;3.03;;;;;;;;;;5119983;28;20201;-70
2021/09/08 12:31:16;;;;;;;3.47;3.00;;;;;;;;;;5099509;28;20208;-66
2021/09/08 12:33:52;;;;;;;5.53;3.05;;;;;;;;;;5099450;28;20315;-65
2021/09/08 12:36:19;;;;;;;4.43;3.17;;;;;;;;;;5105259;28;20561;-66
2021/09/08 12:38:50;;;;;;;6.95;3.65;;;;;;;;;;5104110;28;20203;-67
2021/09/08 12:41:20;;;;;;;5.50;3.53;;;;;;;;;;5111024;28;20294;-67
2021/09/08 12:44:03;;;;;;;5.25;2.85;;;;;;;;;;5107889;28;20241;-67
2021/09/08 12:46:39;;;;;;;6.10;3.33;;;;;;;;;;5105282;28;20664;-67
2021/09/08 12:49:09;;;;;;;4.70;3.38;;;;;;;;;;5106185;28;20245;-66
2021/09/08 12:51:37;;;;;;;7.00;3.15;;;;;;;;;;5105727;28;20559;-67
2021/09/08 12:54:08;;;;;;;3.53;2.78;;;;;;;;;;5106979;28;20223;-67
2021/09/08 12:56:37;;;;;;;4.50;3.00;;;;;;;;;;5105755;28;20208;-67
2021/09/08 12:59:05;;;;;;;4.65;3.40;;;;;;;;;;5104188;28;20215;-67
2021/09/08 13:01:33;;;;;;;3.25;2.95;;;;;;;;;;5106928;28;20231;-67
2021/09/08 13:04:03;;;;;;;4.90;3.55;;;;;;;;;;5104452;28;20557;-67
2021/09/08 13:06:31;;;;;;;4.75;3.08;;;;;;;;;;5104862;28;20692;-67
2021/09/08 13:09:00;;;;;;;4.90;3.00;;;;;;;;;;5102747;28;20283;-67
2021/09/08 13:11:28;;;;;;;5.50;3.20;;;;;;;;;;5101099;28;20751;-67
2021/09/08 13:13:56;;;;;;;5.00;2.83;;;;;;;;;;5106184;28;20225;-67
2021/09/08 13:16:24;;;;;;;3.60;3.30;;;;;;;;;;5109069;28;20207;-67
2021/09/08 13:18:53;;;;;;;3.28;2.63;;;;;;;;;;5104759;28;20196;-67
2021/09/08 13:21:26;;;;;;;4.22;3.10;;;;;;;;;;5104271;28;20210;-67
2021/09/08 13:23:54;;;;;;;3.38;2.72;;;;;;;;;;5106123;28;20231;-68
2021/09/08 13:26:22;;;;;;;2.80;2.60;;;;;;;;;;5100991;28;20207;-67
2021/09/08 13:28:50;;;;;;;3.72;2.90;;;;;;;;;;5099640;28;20209;-67
2021/09/08 13:31:18;;;;;;;3.35;2.83;;;;;;;;;;5100404;28;20201;-68
2021/09/08 13:33:47;;;;;;;3.13;2.88;;;;;;;;;;5102871;28;20213;-68
2021/09/08 13:36:15;;;;;;;3.38;3.08;;;;;;;;;;5105289;28;20211;-73
2021/09/08 13:38:45;;;;;;;3.65;2.92;;;;;;;;;;5106656;28;20656;-75
2021/09/08 13:41:13;;;;;;;3.67;2.70;;;;;;;;;;5103489;28;20240;-75
2021/09/08 13:43:43;;;;;;;3.40;3.10;;;;;;;;;;5096683;28;20267;-74
2021/09/08 13:46:11;;;;;;;3.80;3.45;;;;;;;;;;5095843;28;20212;-75
2021/09/08 13:48:39;;;;;;;5.82;4.40;;;;;;;;;;5100029;28;20284;-74
2021/09/08 13:51:07;;;;;;;5.85;2.90;;;;;;;;;;5102791;28;20233;-74
2021/09/08 13:53:35;;;;;;;3.35;2.92;;;;;;;;;;5101308;28;20205;-74
2021/09/08 13:56:05;;;;;;;5.32;3.17;;;;;;;;;;5104789;28;20198;-74
2021/09/08 13:58:33;;;;;;;5.20;3.05;;;;;;;;;;5098443;28;20211;-74
2021/09/08 14:01:03;;;;;;;4.32;2.55;;;;;;;;;;5102701;28;20204;-74
2021/09/08 14:03:31;;;;;;;5.45;3.53;;;;;;;;;;5104054;28;20305;-74
2021/09/08 14:06:00;;;;;;;3.97;3.58;;;;;;;;;;5110309;28;20246;-75
2021/09/08 14:08:29;;;;;;;3.40;2.85;;;;;;;;;;5107895;28;20664;-75
2021/09/08 14:10:56;;;;;;;4.65;2.60;;;;;;;;;;5106343;28;20264;-75
2021/09/08 14:13:26;;;;;;;5.70;2.90;;;;;;;;;;5110403;28;20229;-75
2021/09/08 14:15:54;;;;;;;2.95;2.72;;;;;;;;;;5096986;28;20274;-75
2021/09/08 14:18:22;;;;;;;4.50;2.55;;;;;;;;;;5096372;28;20350;-75
2021/09/08 14:20:53;;;;;;;2.85;2.47;;;;;;;;;;5101908;28;20639;-75
2021/09/08 14:23:22;;;;;;;3.85;3.00;;;;;;;;;;5102040;28;20233;-75
2021/09/08 14:25:50;;;;;;;5.10;2.70;;;;;;;;;;5102310;28;20688;-75
2021/09/08 14:28:18;;;;;;;3.95;3.20;;;;;;;;;;5104335;28;20215;-75
2021/09/08 14:30:47;;;;;;;4.15;3.10;;;;;;;;;;5102825;28;20592;-75
2021/09/08 14:33:15;;;;;;;4.18;3.22;;;;;;;;;;5104385;28;20201;-75
2021/09/08 14:35:44;;;;;;;3.08;2.63;;;;;;;;;;5109822;28;20227;-74
2021/09/08 14:38:12;;;;;;;2.92;2.72;;;;;;;;;;5109685;28;20243;-75
2021/09/08 14:40:40;;;;;;;2.75;2.53;;;;;;;;;;5105903;28;20287;-75
2021/09/08 14:43:08;;;;;;;5.32;3.15;;;;;;;;;;5107375;28;20233;-75
2021/09/08 14:45:36;;;;;;;4.63;2.80;;;;;;;;;;5106249;28;20224;-75
2021/09/08 14:48:09;;;;;;;5.15;3.40;;;;;;;;;;5103475;28;20564;-75
2021/09/08 14:50:37;;;;;;;4.68;3.20;;;;;;;;;;5099344;28;20211;-75
2021/09/08 14:53:06;;;;;;;4.45;2.60;;;;;;;;;;5104919;28;20208;-75
2021/09/08 14:55:34;;;;;;;3.20;2.78;;;;;;;;;;5111949;28;20217;-75